Terminal Aerodrome Forecast
Issued by NWS San Angelo, TX

Home | Current Version | Previous Version | Text Only | Print | Product List | Glossary On
Versions: 1 2 3 4 5 6 7 8 9 10 11 12
000
FTUS44 KSJT 011700
TAFSJT
TAF
KSJT 011722Z 0118/0218 19013G19KT P6SM FEW070
     FM020000 18009KT P6SM SCT200
     FM021200 19010G16KT P6SM BKN016
     FM021500 21013G20KT P6SM SCT025=

USA.gov is the U.S. government's official web portal to all federal, state and local government web resources and services.